Time;durP1;ratioP1;P1;durP2;ratioP2;P2;SDS_P1;SDS_P2;PMS_P1;PMS_P2;Temp;Humidity;BMP_temperature;BMP_pressure;BME280_temperature;BME280_humidity;BME280_pressure;Samples;Min_cycle;Max_cycle;Signal;HPM_P1;HPM_P2
2024/04/21 00:00:56;;;;;;;12.02;3.15;;;7.50;99.90;;;;;;2233111;26;20613;-72
2024/04/21 00:01:56;;;;;;;10.20;2.70;;;7.50;99.90;;;;;;2237681;26;20440;-73
2024/04/21 00:02:57;;;;;;;17.45;3.50;;;7.50;99.90;;;;;;2237333;26;20456;-73
2024/04/21 00:03:58;;;;;;;9.48;2.97;;;7.50;99.90;;;;;;2236941;26;20336;-72
2024/04/21 00:04:58;;;;;;;12.18;3.13;;;7.50;99.90;;;;;;2220894;26;20050;-73
2024/04/21 00:05:59;;;;;;;19.33;3.28;;;7.50;99.90;;;;;;2237114;26;20409;-73
2024/04/21 00:06:59;;;;;;;11.90;2.83;;;7.50;99.90;;;;;;2237186;26;20018;-72
2024/04/21 00:08:00;;;;;;;10.43;2.60;;;7.50;99.90;;;;;;2236302;26;20086;-73
2024/04/21 00:09:00;;;;;;;18.45;4.00;;;7.50;99.90;;;;;;2238567;26;20014;-73
2024/04/21 00:10:01;;;;;;;9.75;2.70;;;7.50;99.90;;;;;;2238243;26;20014;-73
2024/04/21 00:11:01;;;;;;;12.32;3.38;;;7.50;99.90;;;;;;2237607;26;19996;-73
2024/04/21 00:12:02;;;;;;;9.65;2.58;;;7.50;99.90;;;;;;2238135;26;20042;-73
2024/04/21 00:13:03;;;;;;;12.98;3.15;;;7.50;99.90;;;;;;2232529;26;20000;-73
2024/04/21 00:14:03;;;;;;;12.73;2.90;;;7.50;99.90;;;;;;2233688;26;20066;-73
2024/04/21 00:15:04;;;;;;;11.88;2.33;;;7.50;99.90;;;;;;2235676;26;20439;-73
2024/04/21 00:16:05;;;;;;;12.48;3.20;;;7.60;99.90;;;;;;2237163;26;20010;-72
2024/04/21 00:17:06;;;;;;;12.15;2.88;;;7.50;99.90;;;;;;2235212;26;19999;-73
2024/04/21 00:18:06;;;;;;;15.30;2.92;;;7.50;99.90;;;;;;2233881;26;20011;-73
2024/04/21 00:19:07;;;;;;;14.40;2.90;;;7.50;99.90;;;;;;2236300;26;20076;-72
2024/04/21 00:20:07;;;;;;;12.20;2.75;;;7.50;99.90;;;;;;2238530;26;19999;-74
2024/04/21 00:21:09;;;;;;;15.18;3.38;;;7.50;99.90;;;;;;2236277;26;20003;-73
2024/04/21 00:22:09;;;;;;;18.02;2.75;;;7.50;99.90;;;;;;2238140;26;20459;-74
2024/04/21 00:23:10;;;;;;;18.20;3.15;;;7.50;99.90;;;;;;2237191;26;20427;-72
2024/04/21 00:24:10;;;;;;;14.93;3.00;;;7.50;99.90;;;;;;2237793;26;19999;-73
2024/04/21 00:25:11;;;;;;;15.00;3.97;;;7.50;99.90;;;;;;2238150;26;20004;-72
2024/04/21 00:26:11;;;;;;;14.65;3.47;;;7.50;99.90;;;;;;2237391;26;20010;-73
2024/04/21 00:27:12;;;;;;;13.98;3.35;;;7.50;99.90;;;;;;2236624;26;19999;-73
2024/04/21 00:28:12;;;;;;;16.70;3.50;;;7.50;99.90;;;;;;2237809;26;20000;-73
2024/04/21 00:29:13;;;;;;;15.00;2.95;;;7.50;99.90;;;;;;2249185;26;20516;-73
2024/04/21 00:30:13;;;;;;;10.68;3.03;;;7.50;99.90;;;;;;2253072;26;20048;-74
2024/04/21 00:31:14;;;;;;;12.55;4.05;;;7.50;99.90;;;;;;2235493;26;20004;-73
2024/04/21 00:32:15;;;;;;;9.85;3.22;;;7.50;99.90;;;;;;2237202;26;20007;-73
2024/04/21 00:33:15;;;;;;;11.30;2.50;;;7.60;99.90;;;;;;2238531;26;20003;-73
2024/04/21 00:34:16;;;;;;;15.48;3.53;;;7.60;99.90;;;;;;2237695;26;20010;-72
2024/04/21 00:35:17;;;;;;;11.38;2.85;;;7.60;99.90;;;;;;2236236;26;19999;-73
2024/04/21 00:36:20;;;;;;;10.50;2.95;;;7.50;99.90;;;;;;2239856;26;20070;-73
2024/04/21 00:37:21;;;;;;;13.95;2.95;;;7.50;99.90;;;;;;2237490;26;20461;-73
2024/04/21 00:38:21;;;;;;;11.52;3.00;;;7.50;99.90;;;;;;2238520;26;20003;-71
2024/04/21 00:39:22;;;;;;;10.00;3.00;;;7.50;99.90;;;;;;2234258;26;20126;-73
2024/04/21 00:40:22;;;;;;;13.32;2.80;;;7.50;99.90;;;;;;2236435;26;20000;-72
2024/04/21 00:41:23;;;;;;;15.25;2.88;;;7.50;99.90;;;;;;2237683;26;19995;-73
2024/04/21 00:42:24;;;;;;;15.70;3.75;;;7.50;99.90;;;;;;2238963;26;20007;-72
2024/04/21 00:43:25;;;;;;;12.05;3.33;;;7.50;99.90;;;;;;2236116;26;20536;-73
2024/04/21 00:44:25;;;;;;;14.45;3.20;;;7.50;99.90;;;;;;2236541;26;19995;-72
2024/04/21 00:45:27;;;;;;;19.38;4.38;;;7.50;99.90;;;;;;2236648;26;20043;-73
2024/04/21 00:46:28;;;;;;;11.98;3.10;;;7.50;99.90;;;;;;2236963;26;20011;-72
2024/04/21 00:47:29;;;;;;;15.82;3.45;;;7.50;99.90;;;;;;2238284;26;20352;-72
2024/04/21 00:48:30;;;;;;;10.65;2.55;;;7.40;99.90;;;;;;2236689;26;20019;-72
2024/04/21 00:49:31;;;;;;;9.00;2.88;;;7.40;99.90;;;;;;2236359;26;20110;-72
2024/04/21 00:50:31;;;;;;;10.35;2.72;;;7.40;99.90;;;;;;2238558;26;19995;-73
2024/04/21 00:51:34;;;;;;;19.02;3.50;;;7.40;99.90;;;;;;2235417;26;20000;-73
2024/04/21 00:52:35;;;;;;;11.40;2.88;;;7.40;99.90;;;;;;2238051;26;20023;-73
2024/04/21 00:53:36;;;;;;;11.65;3.08;;;7.40;99.90;;;;;;2235924;26;19992;-72
2024/04/21 00:54:38;;;;;;;11.15;2.72;;;7.40;99.90;;;;;;2238339;26;20075;-73
2024/04/21 00:55:39;;;;;;;11.60;3.15;;;7.40;99.90;;;;;;2233518;26;20625;-73
2024/04/21 00:56:41;;;;;;;13.27;2.88;;;7.40;99.90;;;;;;2235915;26;20069;-72
2024/04/21 00:57:41;;;;;;;10.75;2.95;;;7.40;99.90;;;;;;2237373;26;20082;-73
2024/04/21 00:58:46;;;;;;;10.82;2.53;;;7.50;99.90;;;;;;2237986;26;19999;-73
2024/04/21 00:59:47;;;;;;;8.20;2.35;;;7.50;99.90;;;;;;2237778;26;20745;-71
2024/04/21 01:00:47;;;;;;;10.55;2.70;;;7.50;99.90;;;;;;2238263;26;20097;-72
2024/04/21 01:01:49;;;;;;;10.40;2.92;;;7.50;99.90;;;;;;2235964;26;20351;-73
2024/04/21 01:02:50;;;;;;;13.73;3.17;;;7.50;99.90;;;;;;2236701;26;20008;-73
2024/04/21 01:03:52;;;;;;;11.90;3.47;;;7.50;99.90;;;;;;2236589;26;20004;-73
2024/04/21 01:04:53;;;;;;;11.70;2.80;;;7.50;99.90;;;;;;2237040;26;19996;-72
2024/04/21 01:05:53;;;;;;;13.98;3.00;;;7.50;99.90;;;;;;2237130;26;20031;-72
2024/04/21 01:06:54;;;;;;;11.35;2.58;;;7.50;99.90;;;;;;2237348;26;19999;-73
2024/04/21 01:07:55;;;;;;;11.88;2.30;;;7.50;99.90;;;;;;2236721;26;20077;-72
2024/04/21 01:08:56;;;;;;;12.00;3.20;;;7.50;99.90;;;;;;2238054;26;20003;-73
2024/04/21 01:09:56;;;;;;;16.35;3.65;;;7.50;99.90;;;;;;2236728;26;20003;-72
2024/04/21 01:10:57;;;;;;;11.38;2.60;;;7.50;99.90;;;;;;2237547;26;20019;-72
2024/04/21 01:11:57;;;;;;;12.35;2.25;;;7.50;99.90;;;;;;2235754;26;20007;-74
2024/04/21 01:12:58;;;;;;;12.40;3.50;;;7.50;99.90;;;;;;2234226;26;20452;-72
2024/04/21 01:13:59;;;;;;;13.82;2.80;;;7.50;99.90;;;;;;2235479;26;20537;-72
2024/04/21 01:14:59;;;;;;;13.52;3.00;;;7.50;99.90;;;;;;2231169;26;20077;-72
2024/04/21 01:16:00;;;;;;;20.58;4.57;;;7.50;99.90;;;;;;2235689;26;20454;-72
2024/04/21 01:17:01;;;;;;;9.60;2.58;;;7.50;99.90;;;;;;2235204;26;20080;-72
2024/04/21 01:18:04;;;;;;;12.55;3.05;;;7.50;99.90;;;;;;2236990;26;20019;-71
2024/04/21 01:19:04;;;;;;;7.55;2.80;;;7.50;99.90;;;;;;2236424;26;20014;-72
2024/04/21 01:20:06;;;;;;;14.02;3.58;;;7.50;99.90;;;;;;2234779;26;20459;-71
2024/04/21 01:21:06;;;;;;;12.52;3.20;;;7.60;99.90;;;;;;2237803;26;20653;-72
2024/04/21 01:22:07;;;;;;;13.52;2.95;;;7.60;99.90;;;;;;2237455;26;20352;-71
2024/04/21 01:23:07;;;;;;;15.85;2.90;;;7.60;99.90;;;;;;2237255;26;19995;-72
2024/04/21 01:24:08;;;;;;;14.73;2.90;;;7.50;99.90;;;;;;2236974;26;20014;-72
2024/04/21 01:25:08;;;;;;;12.68;2.78;;;7.60;99.90;;;;;;2235693;26;19996;-71
2024/04/21 01:26:09;;;;;;;10.88;2.83;;;7.60;99.90;;;;;;2237361;26;20455;-72
2024/04/21 01:27:09;;;;;;;15.63;2.65;;;7.60;99.90;;;;;;2237284;26;20003;-72
2024/04/21 01:28:10;;;;;;;13.68;2.70;;;7.50;99.90;;;;;;2236473;26;20073;-72
2024/04/21 01:29:10;;;;;;;11.15;2.50;;;7.50;99.90;;;;;;2238321;26;20041;-72
2024/04/21 01:30:11;;;;;;;12.50;2.33;;;7.50;99.90;;;;;;2235490;26;20425;-72
2024/04/21 01:31:12;;;;;;;12.70;2.45;;;7.50;99.90;;;;;;2237125;26;20007;-72
2024/04/21 01:32:19;;;;;;;8.27;2.25;;;7.50;99.90;;;;;;2235805;26;19999;-72
2024/04/21 01:33:20;;;;;;;10.23;2.45;;;7.50;99.90;;;;;;2234434;26;20007;-71
2024/04/21 01:34:20;;;;;;;7.70;3.00;;;7.50;99.90;;;;;;2234857;26;20095;-72
2024/04/21 01:35:21;;;;;;;16.33;3.22;;;7.50;99.90;;;;;;2239482;26;20019;-72
2024/04/21 01:36:22;;;;;;;9.30;2.35;;;7.50;99.90;;;;;;2236259;26;19999;-72
2024/04/21 01:37:23;;;;;;;12.05;2.42;;;7.50;99.90;;;;;;2237886;26;20448;-72
2024/04/21 01:38:23;;;;;;;11.60;2.70;;;7.50;99.90;;;;;;2235834;26;20071;-72
2024/04/21 01:39:24;;;;;;;9.02;2.03;;;7.50;99.90;;;;;;2236959;26;20034;-72
2024/04/21 01:40:24;;;;;;;13.32;2.80;;;7.50;99.90;;;;;;2236254;26;20015;-72
2024/04/21 01:41:25;;;;;;;8.27;1.75;;;7.40;99.90;;;;;;2235755;26;20015;-72
2024/04/21 01:42:25;;;;;;;13.25;1.98;;;7.40;99.90;;;;;;2237838;26;20011;-72
2024/04/21 01:43:26;;;;;;;9.32;2.10;;;7.40;99.90;;;;;;2236715;26;19995;-75
2024/04/21 01:44:27;;;;;;;7.22;1.90;;;7.40;99.90;;;;;;2234985;26;20014;-71
2024/04/21 01:45:27;;;;;;;8.40;2.28;;;7.40;99.90;;;;;;2238113;26;19996;-71
2024/04/21 01:46:28;;;;;;;9.05;2.35;;;7.40;99.90;;;;;;2234705;26;20081;-73
2024/04/21 01:47:28;;;;;;;8.45;2.50;;;7.30;99.90;;;;;;2236063;26;19995;-72
2024/04/21 01:48:29;;;;;;;8.10;2.00;;;7.30;99.90;;;;;;2236947;26;19995;-73
2024/04/21 01:49:29;;;;;;;8.02;1.85;;;7.30;99.90;;;;;;2236270;26;19995;-70
2024/04/21 01:50:30;;;;;;;9.27;2.63;;;7.30;99.90;;;;;;2236907;26;20009;-70
2024/04/21 01:51:30;;;;;;;10.85;2.28;;;7.20;99.90;;;;;;2238244;26;19995;-68
2024/04/21 01:52:31;;;;;;;6.80;1.98;;;7.20;99.90;;;;;;2235608;26;20428;-68
2024/04/21 01:53:32;;;;;;;10.23;2.38;;;7.10;99.90;;;;;;2237734;26;20610;-70
2024/04/21 01:54:33;;;;;;;7.75;1.95;;;7.20;99.90;;;;;;2236265;26;20562;-70
2024/04/21 01:55:33;;;;;;;8.52;2.30;;;7.10;99.90;;;;;;2237965;26;20774;-71
2024/04/21 01:56:34;;;;;;;7.45;2.20;;;7.10;99.90;;;;;;2236281;26;20368;-68
2024/04/21 01:57:36;;;;;;;7.60;2.42;;;7.00;99.90;;;;;;2238174;26;20300;-70
2024/04/21 01:58:37;;;;;;;9.18;3.42;;;7.00;99.90;;;;;;2236170;26;19992;-67
2024/04/21 01:59:37;;;;;;;8.25;2.58;;;7.10;99.90;;;;;;2237938;26;20014;-68
2024/04/21 02:00:38;;;;;;;9.18;2.72;;;7.10;99.90;;;;;;2237227;26;19999;-68
2024/04/21 02:01:38;;;;;;;7.57;2.22;;;7.00;99.90;;;;;;2235927;26;20039;-68
2024/04/21 02:02:39;;;;;;;7.00;2.28;;;7.00;99.90;;;;;;2237530;26;19996;-68
2024/04/21 02:03:39;;;;;;;10.30;2.20;;;7.00;99.90;;;;;;2237253;26;20000;-71
2024/04/21 02:04:40;;;;;;;7.38;1.73;;;7.00;99.90;;;;;;2236253;26;19999;-68
2024/04/21 02:05:40;;;;;;;8.25;2.38;;;7.00;99.90;;;;;;2238234;26;20549;-68
2024/04/21 02:06:41;;;;;;;9.02;2.08;;;7.00;99.90;;;;;;2236873;26;19996;-69
2024/04/21 02:07:42;;;;;;;11.68;2.72;;;7.00;99.90;;;;;;2237405;26;19995;-69
2024/04/21 02:08:42;;;;;;;7.88;1.92;;;7.00;99.90;;;;;;2236462;26;20007;-67
2024/04/21 02:09:42;;;;;;;7.88;2.08;;;7.00;99.90;;;;;;2235951;26;20086;-67
2024/04/21 02:10:43;;;;;;;9.65;1.88;;;7.00;99.90;;;;;;2235873;26;19995;-69
2024/04/21 02:11:44;;;;;;;8.85;2.75;;;6.90;99.90;;;;;;2235153;26;19999;-68
2024/04/21 02:12:44;;;;;;;8.57;2.42;;;6.90;99.90;;;;;;2236186;26;20010;-68
2024/04/21 02:13:45;;;;;;;9.30;2.25;;;6.90;99.90;;;;;;2237209;26;20031;-70
2024/04/21 02:14:45;;;;;;;7.57;1.98;;;6.90;99.90;;;;;;2235727;26;20046;-71
2024/04/21 02:15:49;;;;;;;5.75;2.20;;;6.90;99.90;;;;;;2237026;26;19995;-69
2024/04/21 02:16:50;;;;;;;6.90;1.98;;;6.90;99.90;;;;;;2237408;26;20464;-70
2024/04/21 02:17:50;;;;;;;8.52;2.33;;;6.90;99.90;;;;;;2234161;26;20429;-71
2024/04/21 02:18:51;;;;;;;9.27;2.40;;;6.90;99.90;;;;;;2236843;26;20003;-70
2024/04/21 02:19:51;;;;;;;5.68;1.85;;;6.90;99.90;;;;;;2235578;26;20015;-70
2024/04/21 02:20:52;;;;;;;10.95;2.65;;;6.90;99.90;;;;;;2237083;26;20076;-70
2024/04/21 02:21:52;;;;;;;8.95;2.10;;;6.90;99.90;;;;;;2237607;26;20041;-70
2024/04/21 02:22:53;;;;;;;6.90;1.98;;;6.90;99.90;;;;;;2238693;26;20689;-69
2024/04/21 02:23:53;;;;;;;9.55;2.78;;;6.90;99.90;;;;;;2238459;26;19999;-69
2024/04/21 02:24:54;;;;;;;8.20;2.35;;;6.90;99.90;;;;;;2234796;26;20000;-70
2024/04/21 02:26:01;;;;;;;6.53;2.22;;;6.90;99.90;;;;;;2236747;26;20014;-71
2024/04/21 02:27:02;;;;;;;9.32;2.22;;;6.90;99.90;;;;;;2234235;26;20015;-71
2024/04/21 02:28:03;;;;;;;7.97;2.08;;;6.90;99.90;;;;;;2233337;26;20003;-70
2024/04/21 02:29:04;;;;;;;5.75;1.92;;;6.90;99.90;;;;;;2237734;26;20031;-69
2024/04/21 02:30:05;;;;;;;4.88;1.80;;;6.80;99.90;;;;;;2238485;26;20018;-69
2024/04/21 02:31:05;;;;;;;8.85;2.10;;;6.90;99.90;;;;;;2237136;26;20014;-70
2024/04/21 02:32:06;;;;;;;7.53;2.15;;;6.80;99.90;;;;;;2238966;26;20011;-69
2024/04/21 02:33:07;;;;;;;8.85;2.10;;;6.80;99.90;;;;;;2233857;26;20018;-70
2024/04/21 02:34:07;;;;;;;11.43;1.83;;;6.80;99.90;;;;;;2238267;26;20452;-69
2024/04/21 02:35:08;;;;;;;7.18;2.15;;;6.80;99.90;;;;;;2252346;26;20462;-70
2024/04/21 02:36:08;;;;;;;8.38;2.05;;;6.80;99.90;;;;;;2252418;26;20017;-69
2024/04/21 02:37:09;;;;;;;10.52;1.88;;;6.80;99.90;;;;;;2233755;26;20007;-69
2024/04/21 02:38:11;;;;;;;7.28;1.75;;;6.80;99.90;;;;;;2237410;26;20000;-70
2024/04/21 02:39:12;;;;;;;16.60;2.33;;;6.80;99.90;;;;;;2238032;26;20006;-70
2024/04/21 02:40:13;;;;;;;9.93;2.45;;;6.70;99.90;;;;;;2237810;26;20006;-69
2024/04/21 02:41:14;;;;;;;6.93;2.20;;;6.70;99.90;;;;;;2238775;26;20000;-70
2024/04/21 02:42:14;;;;;;;7.60;1.98;;;6.70;99.90;;;;;;2237153;26;20037;-70
2024/04/21 02:43:15;;;;;;;6.68;1.75;;;6.70;99.90;;;;;;2237761;26;19996;-70
2024/04/21 02:44:16;;;;;;;7.72;2.05;;;6.70;99.90;;;;;;2239305;26;19995;-69
2024/04/21 02:45:16;;;;;;;9.32;2.35;;;6.70;99.90;;;;;;2236289;26;20027;-70
2024/04/21 02:46:17;;;;;;;10.93;2.00;;;6.70;99.90;;;;;;2237832;26;20065;-70
2024/04/21 02:47:17;;;;;;;9.60;2.10;;;6.70;99.90;;;;;;2237910;26;20076;-70
2024/04/21 02:48:18;;;;;;;4.43;2.00;;;6.60;99.90;;;;;;2239223;26;20375;-69
2024/04/21 02:49:18;;;;;;;7.88;1.88;;;6.60;99.90;;;;;;2236858;26;19995;-70
2024/04/21 02:50:19;;;;;;;7.40;1.90;;;6.60;99.90;;;;;;2237213;26;19995;-70
2024/04/21 02:51:19;;;;;;;7.53;1.85;;;6.60;99.90;;;;;;2237438;26;20000;-69
2024/04/21 02:52:20;;;;;;;11.73;2.72;;;6.60;99.90;;;;;;2238082;26;19991;-69
2024/04/21 02:53:20;;;;;;;9.60;2.42;;;6.60;99.90;;;;;;2236220;26;20645;-70
2024/04/21 02:54:25;;;;;;;7.70;1.88;;;6.50;99.90;;;;;;2239263;26;20333;-69
2024/04/21 02:55:26;;;;;;;6.28;1.75;;;6.50;99.90;;;;;;2236470;26;20006;-70
2024/04/21 02:56:26;;;;;;;6.20;1.73;;;6.50;99.90;;;;;;2237132;26;20687;-70
2024/04/21 02:57:27;;;;;;;11.05;2.25;;;6.50;99.90;;;;;;2238487;26;20007;-69
2024/04/21 02:58:27;;;;;;;7.45;1.67;;;6.50;99.90;;;;;;2236484;26;20011;-70
2024/04/21 02:59:28;;;;;;;8.38;1.88;;;6.50;99.90;;;;;;2238221;26;20062;-69
2024/04/21 03:00:29;;;;;;;6.45;1.70;;;6.40;99.90;;;;;;2239456;26;20665;-69
2024/04/21 03:01:30;;;;;;;6.45;1.88;;;6.40;99.90;;;;;;2237203;26;20444;-69
2024/04/21 03:02:31;;;;;;;9.70;1.88;;;6.40;99.90;;;;;;2239147;26;20341;-70
2024/04/21 03:03:31;;;;;;;6.47;1.65;;;6.40;99.90;;;;;;2237838;26;20067;-69
2024/04/21 03:04:32;;;;;;;8.65;1.80;;;6.40;99.90;;;;;;2238087;26;19999;-70
2024/04/21 03:05:32;;;;;;;6.60;2.03;;;6.40;99.90;;;;;;2237765;26;20340;-69
2024/04/21 03:06:33;;;;;;;6.10;1.77;;;6.40;99.90;;;;;;2236805;26;20363;-69
2024/04/21 03:07:33;;;;;;;7.70;1.48;;;6.40;99.90;;;;;;2241668;26;20084;-69
2024/04/21 03:08:34;;;;;;;7.38;1.77;;;6.40;99.90;;;;;;2240125;26;20003;-69
2024/04/21 03:09:34;;;;;;;5.82;1.50;;;6.40;99.90;;;;;;2238692;26;19999;-70
2024/04/21 03:10:35;;;;;;;7.07;1.92;;;6.40;99.90;;;;;;2236941;26;20093;-70
2024/04/21 03:11:35;;;;;;;7.75;1.85;;;6.40;99.90;;;;;;2238709;26;20000;-69
2024/04/21 03:12:36;;;;;;;6.35;1.95;;;6.40;99.90;;;;;;2237425;26;20078;-70
2024/04/21 03:13:36;;;;;;;4.95;1.90;;;6.40;99.90;;;;;;2236242;26;20035;-68
2024/04/21 03:14:37;;;;;;;6.00;1.58;;;6.40;99.90;;;;;;2237481;26;20022;-69
2024/04/21 03:15:37;;;;;;;4.10;1.73;;;6.30;99.90;;;;;;2236258;26;20007;-69
2024/04/21 03:16:38;;;;;;;4.88;1.73;;;6.40;99.90;;;;;;2237723;26;19999;-69
2024/04/21 03:17:38;;;;;;;4.85;1.70;;;6.40;99.90;;;;;;2238696;26;20018;-69
2024/04/21 03:18:39;;;;;;;9.05;2.20;;;6.40;99.90;;;;;;2236985;26;20004;-68
2024/04/21 03:19:39;;;;;;;3.20;1.70;;;6.40;99.90;;;;;;2238149;26;20082;-70
2024/04/21 03:20:40;;;;;;;6.63;1.70;;;6.40;99.90;;;;;;2223353;26;20008;-69
2024/04/21 03:21:40;;;;;;;8.10;1.98;;;6.40;99.90;;;;;;2236501;26;20000;-68
2024/04/21 03:22:41;;;;;;;6.55;1.90;;;6.40;99.90;;;;;;2238529;26;20084;-70
2024/04/21 03:23:41;;;;;;;5.40;1.70;;;6.40;99.90;;;;;;2238332;26;20384;-69
2024/04/21 03:24:42;;;;;;;6.97;2.13;;;6.40;99.90;;;;;;2232964;26;20000;-69
2024/04/21 03:25:42;;;;;;;6.80;2.22;;;6.40;99.90;;;;;;2238521;26;20026;-69
2024/04/21 03:26:43;;;;;;;8.05;1.83;;;6.40;99.90;;;;;;2237478;26;20003;-69
2024/04/21 03:27:43;;;;;;;9.57;1.88;;;6.40;99.90;;;;;;2237598;26;20007;-68
2024/04/21 03:28:44;;;;;;;6.80;2.65;;;6.40;99.90;;;;;;2239096;26;20333;-69
2024/04/21 03:29:47;;;;;;;8.18;2.25;;;6.40;99.90;;;;;;2231830;26;19999;-69
2024/04/21 03:30:55;;;;;;;4.85;1.77;;;6.30;99.90;;;;;;2234149;26;20515;-69
2024/04/21 03:31:55;;;;;;;8.25;2.10;;;6.40;99.90;;;;;;2238398;26;20097;-69
2024/04/21 03:32:56;;;;;;;5.78;1.70;;;6.30;99.90;;;;;;2237176;26;20007;-69
2024/04/21 03:33:56;;;;;;;5.78;2.13;;;6.30;99.90;;;;;;2237931;26;20371;-70
2024/04/21 03:34:57;;;;;;;8.32;2.38;;;6.30;99.90;;;;;;2237934;26;20534;-69
2024/04/21 03:36:02;;;;;;;5.80;1.65;;;6.30;99.90;;;;;;2236345;26;19999;-69
2024/04/21 03:37:03;;;;;;;6.15;2.08;;;6.30;99.90;;;;;;2238909;26;20788;-70
2024/04/21 03:38:03;;;;;;;7.97;2.00;;;6.30;99.90;;;;;;2236589;26;20004;-69
2024/04/21 03:39:04;;;;;;;7.55;1.73;;;6.30;99.90;;;;;;2237255;26;20003;-69
2024/04/21 03:40:05;;;;;;;5.60;1.88;;;6.30;99.90;;;;;;2236946;26;20004;-69
2024/04/21 03:41:05;;;;;;;6.63;1.67;;;6.30;99.90;;;;;;2235822;26;20003;-70
2024/04/21 03:42:06;;;;;;;6.82;1.77;;;6.30;99.90;;;;;;2238110;26;20003;-69
2024/04/21 03:43:06;;;;;;;6.88;1.83;;;6.30;99.90;;;;;;2237460;26;20000;-69
2024/04/21 03:44:07;;;;;;;7.60;1.80;;;6.30;99.90;;;;;;2238961;26;20448;-69
2024/04/21 03:45:08;;;;;;;8.80;2.00;;;6.20;99.90;;;;;;2234648;26;20521;-72
2024/04/21 03:46:09;;;;;;;6.82;2.03;;;6.20;99.90;;;;;;2236331;26;20080;-72
2024/04/21 03:47:09;;;;;;;8.18;2.20;;;6.20;99.90;;;;;;2238388;26;20004;-72
2024/04/21 03:48:10;;;;;;;11.43;1.90;;;6.20;99.90;;;;;;2237809;26;20000;-72
2024/04/21 03:49:10;;;;;;;8.30;2.22;;;6.10;99.90;;;;;;2237105;26;20674;-72
2024/04/21 03:50:11;;;;;;;6.15;2.22;;;6.10;99.90;;;;;;2238798;26;20036;-72
2024/04/21 03:51:11;;;;;;;6.95;1.83;;;6.10;99.90;;;;;;2236163;26;20011;-72
2024/04/21 03:52:12;;;;;;;9.88;2.00;;;6.10;99.90;;;;;;2236421;26;20490;-72
2024/04/21 03:53:15;;;;;;;7.60;1.75;;;6.10;99.90;;;;;;2238285;26;20454;-72
2024/04/21 03:54:15;;;;;;;7.22;2.35;;;6.10;99.90;;;;;;2236832;26;20011;-72
2024/04/21 03:55:16;;;;;;;9.80;2.30;;;6.10;99.90;;;;;;2238687;26;20012;-72
2024/04/21 03:56:17;;;;;;;5.53;2.03;;;6.10;99.90;;;;;;2235040;26;19999;-72
2024/04/21 03:57:17;;;;;;;3.20;1.60;;;6.10;99.90;;;;;;2236557;26;20019;-72
2024/04/21 03:58:18;;;;;;;4.85;1.50;;;6.10;99.90;;;;;;2238628;26;20101;-72
2024/04/21 03:59:18;;;;;;;5.47;1.65;;;6.10;99.90;;;;;;2236658;26;19999;-72
2024/04/21 04:00:19;;;;;;;7.10;1.80;;;6.00;99.90;;;;;;2237146;26;20035;-72
2024/04/21 04:01:19;;;;;;;8.55;1.90;;;6.00;99.90;;;;;;2237486;26;20056;-72
2024/04/21 04:02:20;;;;;;;8.18;2.20;;;6.00;99.90;;;;;;2237614;26;20003;-72
2024/04/21 04:03:20;;;;;;;6.50;1.52;;;6.00;99.90;;;;;;2239437;26;20004;-72
2024/04/21 04:04:21;;;;;;;7.13;2.05;;;6.00;99.90;;;;;;2237116;26;20022;-72
2024/04/21 04:05:21;;;;;;;4.50;1.67;;;6.00;99.90;;;;;;2237803;26;20037;-72
2024/04/21 04:06:24;;;;;;;7.55;2.25;;;6.00;99.90;;;;;;2238419;26;20029;-72
2024/04/21 04:07:25;;;;;;;11.50;2.22;;;6.00;99.90;;;;;;2237179;26;19999;-72
2024/04/21 04:08:25;;;;;;;4.80;2.05;;;6.00;99.90;;;;;;2237589;26;19999;-72
2024/04/21 04:09:26;;;;;;;6.38;1.60;;;6.00;99.90;;;;;;2237830;26;20010;-72
2024/04/21 04:10:26;;;;;;;6.00;1.50;;;6.00;99.90;;;;;;2236894;26;20014;-72
2024/04/21 04:11:27;;;;;;;3.85;1.75;;;6.00;99.90;;;;;;2233532;26;20000;-71
2024/04/21 04:12:27;;;;;;;4.35;1.88;;;6.00;99.90;;;;;;2238454;26;20679;-71
2024/04/21 04:13:28;;;;;;;7.50;2.35;;;6.00;99.90;;;;;;2231626;26;19996;-71
2024/04/21 04:14:28;;;;;;;3.38;1.55;;;6.00;99.90;;;;;;2233260;26;19999;-71
2024/04/21 04:15:30;;;;;;;5.30;2.03;;;6.00;99.90;;;;;;2235498;26;19995;-72
2024/04/21 04:16:31;;;;;;;5.18;1.85;;;6.00;99.90;;;;;;2237054;26;20019;-71
2024/04/21 04:17:31;;;;;;;10.38;2.47;;;5.90;99.90;;;;;;2236874;26;20004;-72
2024/04/21 04:18:31;;;;;;;4.10;1.70;;;6.00;99.90;;;;;;2236878;26;20439;-72
2024/04/21 04:19:32;;;;;;;5.50;1.88;;;6.00;99.90;;;;;;2237968;26;20008;-72
2024/04/21 04:20:33;;;;;;;6.57;1.95;;;6.00;99.90;;;;;;2236739;26;20018;-72
2024/04/21 04:21:33;;;;;;;6.90;1.50;;;5.90;99.90;;;;;;2235341;26;20004;-71
2024/04/21 04:22:34;;;;;;;9.57;2.35;;;6.00;99.90;;;;;;2235184;26;20003;-72
2024/04/21 04:23:35;;;;;;;9.25;2.08;;;6.00;99.90;;;;;;2234004;26;20018;-72
2024/04/21 04:24:35;;;;;;;6.53;2.40;;;6.00;99.90;;;;;;2237471;26;20000;-71
2024/04/21 04:25:36;;;;;;;7.00;1.65;;;6.00;99.90;;;;;;2238949;26;20039;-68
2024/04/21 04:26:36;;;;;;;8.38;1.70;;;5.90;99.90;;;;;;2237483;26;20004;-69
2024/04/21 04:27:37;;;;;;;5.95;1.75;;;5.90;99.90;;;;;;2236416;26;20443;-69
2024/04/21 04:28:38;;;;;;;9.43;1.85;;;5.90;99.90;;;;;;2234910;26;20401;-69
2024/04/21 04:29:38;;;;;;;4.78;1.90;;;5.90;99.90;;;;;;2235969;26;20004;-68
2024/04/21 04:30:40;;;;;;;7.78;2.15;;;5.90;99.90;;;;;;2238214;26;20016;-70
2024/04/21 04:31:41;;;;;;;5.20;1.73;;;5.90;99.90;;;;;;2236506;26;20121;-69
2024/04/21 04:32:41;;;;;;;3.92;1.58;;;5.90;99.90;;;;;;2236675;26;20012;-69
2024/04/21 04:33:42;;;;;;;4.35;1.88;;;5.90;99.90;;;;;;2236528;26;20003;-69
2024/04/21 04:34:43;;;;;;;9.27;1.95;;;5.90;99.90;;;;;;2233416;26;20032;-69
2024/04/21 04:35:44;;;;;;;5.43;1.60;;;5.90;99.90;;;;;;2237293;26;20015;-69
2024/04/21 04:36:45;;;;;;;3.40;1.50;;;5.90;99.90;;;;;;2237543;26;20014;-69
2024/04/21 04:37:45;;;;;;;6.70;1.92;;;5.80;99.90;;;;;;2235683;26;20017;-69
2024/04/21 04:38:46;;;;;;;6.10;2.10;;;5.80;99.90;;;;;;2236743;26;20004;-68
2024/04/21 04:39:47;;;;;;;5.45;1.90;;;5.80;99.90;;;;;;2236925;26;20003;-69
2024/04/21 04:40:47;;;;;;;7.35;1.98;;;5.80;99.90;;;;;;2250083;26;21191;-69
2024/04/21 04:41:48;;;;;;;5.18;1.70;;;5.80;99.90;;;;;;2251896;26;20007;-69
2024/04/21 04:42:48;;;;;;;6.25;1.77;;;5.80;99.90;;;;;;2236981;26;19999;-69
2024/04/21 04:43:49;;;;;;;6.38;2.28;;;5.80;99.90;;;;;;2238512;26;21195;-70
2024/04/21 04:44:49;;;;;;;7.20;2.10;;;5.80;99.90;;;;;;2236715;26;20717;-69
2024/04/21 04:45:50;;;;;;;6.35;1.80;;;5.80;99.90;;;;;;2236707;26;20093;-69
2024/04/21 04:46:50;;;;;;;4.40;1.40;;;5.80;99.90;;;;;;2236345;26;19995;-69
2024/04/21 04:47:51;;;;;;;6.18;2.05;;;5.80;99.90;;;;;;2236917;26;19999;-69
2024/04/21 04:48:51;;;;;;;8.50;2.03;;;5.80;99.90;;;;;;2235882;26;20000;-69
2024/04/21 04:49:52;;;;;;;5.90;1.88;;;5.80;99.90;;;;;;2238312;26;20007;-69
2024/04/21 04:50:52;;;;;;;7.03;1.83;;;5.80;99.90;;;;;;2235357;26;20076;-69
2024/04/21 04:51:53;;;;;;;8.23;3.08;;;5.80;99.90;;;;;;2235551;26;20003;-69
2024/04/21 04:52:56;;;;;;;6.78;1.80;;;5.80;99.90;;;;;;2221864;26;20000;-68
2024/04/21 04:53:57;;;;;;;8.82;1.92;;;5.80;99.90;;;;;;2233421;26;20015;-69
2024/04/21 04:54:57;;;;;;;8.38;2.50;;;5.80;99.90;;;;;;2237782;26;19996;-69
2024/04/21 04:55:58;;;;;;;6.50;1.75;;;5.80;99.90;;;;;;2236614;26;20389;-69
2024/04/21 04:56:58;;;;;;;10.63;2.65;;;5.80;99.90;;;;;;2236432;26;20003;-69
2024/04/21 04:57:59;;;;;;;7.95;2.03;;;5.80;99.90;;;;;;2237665;26;20071;-69
2024/04/21 04:59:00;;;;;;;8.18;2.70;;;5.80;99.90;;;;;;2237680;26;20014;-69
2024/04/21 05:00:00;;;;;;;7.78;2.30;;;5.80;99.90;;;;;;2236979;26;20000;-69
2024/04/21 05:01:01;;;;;;;10.80;2.65;;;5.90;99.90;;;;;;2236811;26;20031;-70
2024/04/21 05:02:01;;;;;;;6.50;2.33;;;5.90;99.90;;;;;;2234468;26;20031;-70
2024/04/21 05:03:03;;;;;;;6.00;1.85;;;5.90;99.90;;;;;;2237239;26;20003;-69
2024/04/21 05:04:03;;;;;;;10.85;2.25;;;5.90;99.90;;;;;;2237401;26;20352;-69
2024/04/21 05:05:05;;;;;;;8.02;2.20;;;5.90;99.90;;;;;;2239710;26;20022;-69
2024/04/21 05:06:05;;;;;;;6.10;1.80;;;5.90;99.90;;;;;;2238901;26;20545;-70
2024/04/21 05:07:06;;;;;;;8.35;3.03;;;6.00;99.90;;;;;;2236803;26;20339;-69
2024/04/21 05:08:07;;;;;;;9.10;2.55;;;6.00;99.90;;;;;;2238027;26;19999;-69
2024/04/21 05:09:07;;;;;;;9.82;2.65;;;6.00;99.90;;;;;;2236518;26;20436;-69
2024/04/21 05:10:08;;;;;;;4.55;2.25;;;6.00;99.90;;;;;;2235532;26;20006;-70
2024/04/21 05:11:08;;;;;;;9.45;2.30;;;6.00;99.90;;;;;;2237395;26;19996;-68
2024/04/21 05:12:09;;;;;;;8.55;2.13;;;6.00;99.90;;;;;;2232877;26;20019;-69
2024/04/21 05:13:09;;;;;;;8.38;2.17;;;6.00;99.90;;;;;;2233030;26;20011;-69
2024/04/21 05:14:10;;;;;;;12.25;2.40;;;6.00;99.90;;;;;;2236092;26;20007;-69
2024/04/21 05:15:10;;;;;;;10.65;2.25;;;6.00;99.90;;;;;;2235201;26;20654;-68
2024/04/21 05:16:11;;;;;;;8.43;2.38;;;6.00;99.90;;;;;;2236966;26;20362;-69
2024/04/21 05:17:11;;;;;;;5.47;2.15;;;6.00;99.90;;;;;;2237696;26;20000;-69
2024/04/21 05:18:12;;;;;;;11.93;2.53;;;6.10;99.90;;;;;;2234418;26;20007;-69
2024/04/21 05:19:12;;;;;;;7.57;2.25;;;6.10;99.90;;;;;;2235722;26;20417;-69